Armando Schwarck Airport


Codes: SVAS/LPJ
Name: Armando Schwarck Airport
City: Guayabal
Country: Venezuela
Elevation: 266 ft.

Photos at Armando Schwarck Airport


   Photos courtesy of SpottingLog. You can add your own sightings and photos by signing up for a free trial today.



No photos found.

Weather at Armando Schwarck Airport


Time (UTC)DescriptionTempratureWindCloud coverageVisibilityPressureHumidity
13-Jun-2024 03:00Overcast Clouds25°C2 mph, SE100%10000m1012hPa95%
13-Jun-2024 06:00Overcast Clouds24°C4 mph, SE100%10000m1011hPa96%
13-Jun-2024 09:00Overcast Clouds23°C2 mph, SE100%10000m1010hPa97%
13-Jun-2024 12:00Light Rain25°C2 mph, SE100%10000m1012hPa93%
13-Jun-2024 15:00Light Rain30°C2 mph, N98%10000m1012hPa71%
13-Jun-2024 18:00Moderate Rain29°C2 mph, NW95%10000m1010hPa82%
13-Jun-2024 21:00Moderate Rain28°C0 mph, NW100%8555m1008hPa90%
14-Jun-2024 00:00Light Rain25°C2 mph, SE100%10000m1011hPa93%
14-Jun-2024 03:00Light Rain24°C4 mph, SE100%10000m1012hPa96%
14-Jun-2024 06:00Overcast Clouds23°C4 mph, SE100%10000m1010hPa96%
14-Jun-2024 09:00Overcast Clouds23°C2 mph, SE98%10000m1010hPa97%
14-Jun-2024 12:00Light Rain25°C2 mph, SE99%10000m1013hPa93%
14-Jun-2024 15:00Moderate Rain28°C2 mph, SE99%3822m1013hPa87%
14-Jun-2024 18:00Moderate Rain25°C2 mph, S99%10000m1011hPa96%
14-Jun-2024 21:00Overcast Clouds26°C0 mph, SW100%10000m1009hPa93%
15-Jun-2024 00:00Overcast Clouds24°C0 mph, NE100%10000m1011hPa98%
15-Jun-2024 03:00Overcast Clouds24°C0 mph, NE100%10000m1013hPa98%
15-Jun-2024 06:00Light Rain23°C0 mph, SE97%10000m1012hPa99%
15-Jun-2024 09:00Moderate Rain23°C2 mph, SE96%10000m1013hPa99%
15-Jun-2024 12:00Light Rain24°C2 mph, NE98%10000m1014hPa97%
15-Jun-2024 15:00Light Rain24°C2 mph, NE100%10000m1015hPa97%
15-Jun-2024 18:00Light Rain27°C4 mph, N99%10000m1012hPa87%
15-Jun-2024 21:00Light Rain26°C4 mph, N93%10000m1011hPa89%
16-Jun-2024 00:00Light Rain24°C2 mph, N97%10000m1012hPa98%
16-Jun-2024 03:00Moderate Rain24°C0 mph, E100%8493m1014hPa99%
16-Jun-2024 06:00Light Rain24°C2 mph, SE100%10000m1012hPa99%
16-Jun-2024 09:00Light Rain23°C2 mph, SE100%10000m1012hPa99%
16-Jun-2024 12:00Light Rain24°C2 mph, SE100%10000m1014hPa94%
16-Jun-2024 15:00Light Rain26°C2 mph, E97%10000m1014hPa83%
16-Jun-2024 18:00Light Rain30°C4 mph, NW86%10000m1011hPa67%
16-Jun-2024 21:00Moderate Rain28°C2 mph, N97%7324m1010hPa90%
17-Jun-2024 00:00Moderate Rain24°C0 mph, E99%10000m1012hPa95%
17-Jun-2024 03:00Light Rain24°C2 mph, S100%10000m1013hPa96%
17-Jun-2024 06:00Light Rain23°C2 mph, SE100%8479m1011hPa97%
17-Jun-2024 09:00Moderate Rain23°C2 mph, SE100%10000m1011hPa98%
17-Jun-2024 12:00Light Rain23°C2 mph, E100%10000m1013hPa98%
17-Jun-2024 15:00Light Rain25°C2 mph, E94%10000m1012hPa90%
17-Jun-2024 18:00Light Rain27°C2 mph, NE97%10000m1010hPa81%
17-Jun-2024 21:00Overcast Clouds27°C2 mph, N100%10000m1009hPa85%
18-Jun-2024 00:00Light Rain24°C2 mph, NW100%10000m1011hPa97%